sensor_id;sensor_type;location;lat;lon;timestamp;pressure;altitude;pressure_sealevel;temperature;humidity
56182;BME280;51963;46.052;14.544;2023-03-20T00:01:23;98404.78;;;10.30;100.00
56182;BME280;51963;46.052;14.544;2023-03-20T00:03:51;98401.88;;;10.25;100.00
56182;BME280;51963;46.052;14.544;2023-03-20T00:06:21;98376.75;;;10.14;100.00
56182;BME280;51963;46.052;14.544;2023-03-20T00:08:50;98403.13;;;10.29;100.00
56182;BME280;51963;46.052;14.544;2023-03-20T00:13:59;98406.16;;;10.41;100.00
56182;BME280;51963;46.052;14.544;2023-03-20T00:16:29;98388.84;;;10.23;100.00
56182;BME280;51963;46.052;14.544;2023-03-20T00:18:56;98417.25;;;10.51;100.00
56182;BME280;51963;46.052;14.544;2023-03-20T00:21:23;98409.09;;;10.16;100.00
56182;BME280;51963;46.052;14.544;2023-03-20T00:23:49;98392.78;;;10.12;100.00
56182;BME280;51963;46.052;14.544;2023-03-20T00:26:16;98411.63;;;10.09;100.00
56182;BME280;51963;46.052;14.544;2023-03-20T00:28:47;98421.75;;;9.91;100.00
56182;BME280;51963;46.052;14.544;2023-03-20T00:31:21;98426.75;;;9.86;100.00
56182;BME280;51963;46.052;14.544;2023-03-20T00:33:52;98410.75;;;9.87;100.00
56182;BME280;51963;46.052;14.544;2023-03-20T00:36:19;98395.69;;;9.58;100.00
56182;BME280;51963;46.052;14.544;2023-03-20T00:38:44;98410.81;;;9.64;100.00
56182;BME280;51963;46.052;14.544;2023-03-20T00:44:35;98405.72;;;9.77;98.96
56182;BME280;51963;46.052;14.544;2023-03-20T00:49:36;98390.59;;;9.71;95.90
56182;BME280;51963;46.052;14.544;2023-03-20T00:52:03;98404.53;;;9.65;97.55
56182;BME280;51963;46.052;14.544;2023-03-20T00:54:30;98382.41;;;9.66;95.91
56182;BME280;51963;46.052;14.544;2023-03-20T00:57:02;98406.06;;;9.74;95.54
56182;BME280;51963;46.052;14.544;2023-03-20T00:59:39;98404.59;;;9.57;96.64
56182;BME280;51963;46.052;14.544;2023-03-20T01:02:06;98397.56;;;9.34;98.41
56182;BME280;51963;46.052;14.544;2023-03-20T01:04:36;98383.59;;;9.10;100.00
56182;BME280;51963;46.052;14.544;2023-03-20T01:07:04;98394.84;;;9.04;100.00
56182;BME280;51963;46.052;14.544;2023-03-20T01:09:29;98393.47;;;8.93;100.00
56182;BME280;51963;46.052;14.544;2023-03-20T01:12:01;98391.03;;;8.83;100.00
56182;BME280;51963;46.052;14.544;2023-03-20T01:14:27;98386.19;;;8.72;100.00
56182;BME280;51963;46.052;14.544;2023-03-20T01:16:54;98389.22;;;8.60;100.00
56182;BME280;51963;46.052;14.544;2023-03-20T01:19:20;98374.75;;;8.56;100.00
56182;BME280;51963;46.052;14.544;2023-03-20T01:21:45;98379.94;;;8.41;100.00
56182;BME280;51963;46.052;14.544;2023-03-20T01:24:12;98375.22;;;8.28;100.00
56182;BME280;51963;46.052;14.544;2023-03-20T01:26:42;98369.00;;;8.21;100.00
56182;BME280;51963;46.052;14.544;2023-03-20T01:29:26;98348.53;;;8.00;100.00
56182;BME280;51963;46.052;14.544;2023-03-20T01:31:52;98373.78;;;8.17;100.00
56182;BME280;51963;46.052;14.544;2023-03-20T01:34:20;98363.50;;;7.99;100.00
56182;BME280;51963;46.052;14.544;2023-03-20T01:36:55;98386.50;;;8.05;100.00
56182;BME280;51963;46.052;14.544;2023-03-20T01:39:32;98382.22;;;8.04;100.00
56182;BME280;51963;46.052;14.544;2023-03-20T01:41:59;98386.19;;;8.00;100.00
56182;BME280;51963;46.052;14.544;2023-03-20T01:44:28;98390.00;;;7.98;100.00
56182;BME280;51963;46.052;14.544;2023-03-20T01:46:56;98394.47;;;7.89;100.00
56182;BME280;51963;46.052;14.544;2023-03-20T01:51:51;98379.97;;;7.93;100.00
56182;BME280;51963;46.052;14.544;2023-03-20T01:54:36;98371.75;;;7.88;100.00
56182;BME280;51963;46.052;14.544;2023-03-20T01:57:14;98382.00;;;8.54;100.00
56182;BME280;51963;46.052;14.544;2023-03-20T01:59:46;98379.72;;;8.51;100.00
56182;BME280;51963;46.052;14.544;2023-03-20T02:02:18;98363.72;;;8.21;100.00
56182;BME280;51963;46.052;14.544;2023-03-20T02:04:53;98371.22;;;8.32;100.00
56182;BME280;51963;46.052;14.544;2023-03-20T02:07:22;98375.78;;;8.15;100.00
56182;BME280;51963;46.052;14.544;2023-03-20T02:09:58;98362.84;;;7.97;100.00
56182;BME280;51963;46.052;14.544;2023-03-20T02:12:35;98373.72;;;7.94;100.00
56182;BME280;51963;46.052;14.544;2023-03-20T02:15:06;98345.81;;;7.76;100.00
56182;BME280;51963;46.052;14.544;2023-03-20T02:17:55;98373.88;;;7.92;100.00
56182;BME280;51963;46.052;14.544;2023-03-20T02:20:32;98346.28;;;7.80;100.00
56182;BME280;51963;46.052;14.544;2023-03-20T02:26:26;98367.38;;;8.12;100.00
56182;BME280;51963;46.052;14.544;2023-03-20T02:32:48;98366.50;;;8.59;100.00
56182;BME280;51963;46.052;14.544;2023-03-20T02:35:34;98342.25;;;8.64;100.00
56182;BME280;51963;46.052;14.544;2023-03-20T02:41:13;98347.47;;;8.41;100.00
56182;BME280;51963;46.052;14.544;2023-03-20T02:44:02;98341.00;;;8.20;100.00
56182;BME280;51963;46.052;14.544;2023-03-20T02:46:58;98349.53;;;7.99;100.00
56182;BME280;51963;46.052;14.544;2023-03-20T02:52:12;98361.97;;;8.13;100.00
56182;BME280;51963;46.052;14.544;2023-03-20T02:54:59;98337.19;;;7.91;100.00
56182;BME280;51963;46.052;14.544;2023-03-20T03:02:50;98329.00;;;7.29;100.00
56182;BME280;51963;46.052;14.544;2023-03-20T03:05:24;98361.72;;;7.35;100.00
56182;BME280;51963;46.052;14.544;2023-03-20T03:07:57;98359.56;;;7.30;100.00
56182;BME280;51963;46.052;14.544;2023-03-20T03:10:29;98354.81;;;7.26;100.00
56182;BME280;51963;46.052;14.544;2023-03-20T03:12:59;98359.22;;;7.33;100.00
56182;BME280;51963;46.052;14.544;2023-03-20T03:15:33;98354.31;;;7.30;100.00
56182;BME280;51963;46.052;14.544;2023-03-20T03:18:02;98354.78;;;7.42;100.00
56182;BME280;51963;46.052;14.544;2023-03-20T03:20:38;98360.22;;;7.32;100.00
56182;BME280;51963;46.052;14.544;2023-03-20T03:23:17;98360.06;;;7.26;100.00
56182;BME280;51963;46.052;14.544;2023-03-20T03:26:14;98368.44;;;7.21;100.00
56182;BME280;51963;46.052;14.544;2023-03-20T03:28:46;98366.81;;;7.20;100.00
56182;BME280;51963;46.052;14.544;2023-03-20T03:31:16;98376.66;;;7.26;100.00
56182;BME280;51963;46.052;14.544;2023-03-20T03:33:47;98372.22;;;7.43;100.00
56182;BME280;51963;46.052;14.544;2023-03-20T03:36:24;98375.16;;;7.48;100.00
56182;BME280;51963;46.052;14.544;2023-03-20T03:47:03;98377.81;;;7.24;100.00
56182;BME280;51963;46.052;14.544;2023-03-20T03:49:35;98382.44;;;7.30;100.00
56182;BME280;51963;46.052;14.544;2023-03-20T03:52:08;98377.81;;;7.24;100.00
56182;BME280;51963;46.052;14.544;2023-03-20T03:54:40;98360.09;;;7.01;100.00
56182;BME280;51963;46.052;14.544;2023-03-20T04:00:10;98381.94;;;7.10;100.00
56182;BME280;51963;46.052;14.544;2023-03-20T04:02:42;98362.22;;;6.97;100.00
56182;BME280;51963;46.052;14.544;2023-03-20T04:05:09;98370.09;;;6.89;100.00
56182;BME280;51963;46.052;14.544;2023-03-20T04:07:35;98381.94;;;7.01;100.00
56182;BME280;51963;46.052;14.544;2023-03-20T04:10:03;98383.44;;;7.04;100.00
56182;BME280;51963;46.052;14.544;2023-03-20T04:12:39;98388.34;;;7.15;100.00
56182;BME280;51963;46.052;14.544;2023-03-20T04:15:09;98390.63;;;7.35;100.00
56182;BME280;51963;46.052;14.544;2023-03-20T04:17:38;98388.34;;;7.24;100.00
56182;BME280;51963;46.052;14.544;2023-03-20T04:20:09;98391.47;;;7.19;100.00
56182;BME280;51963;46.052;14.544;2023-03-20T04:22:35;98395.59;;;7.05;100.00
56182;BME280;51963;46.052;14.544;2023-03-20T04:25:13;98383.09;;;6.99;100.00
56182;BME280;51963;46.052;14.544;2023-03-20T04:27:40;98384.22;;;6.88;100.00
56182;BME280;51963;46.052;14.544;2023-03-20T04:30:12;98353.66;;;6.62;100.00
56182;BME280;51963;46.052;14.544;2023-03-20T04:33:03;98394.59;;;6.98;100.00
56182;BME280;51963;46.052;14.544;2023-03-20T04:35:59;98391.97;;;7.14;100.00
56182;BME280;51963;46.052;14.544;2023-03-20T04:38:25;98389.97;;;7.33;100.00
56182;BME280;51963;46.052;14.544;2023-03-20T04:40:52;98400.50;;;7.41;100.00
56182;BME280;51963;46.052;14.544;2023-03-20T04:43:18;98384.38;;;7.44;100.00
56182;BME280;51963;46.052;14.544;2023-03-20T04:45:44;98395.56;;;7.38;100.00
56182;BME280;51963;46.052;14.544;2023-03-20T04:48:11;98397.22;;;7.23;100.00
56182;BME280;51963;46.052;14.544;2023-03-20T04:50:38;98393.94;;;7.21;100.00
56182;BME280;51963;46.052;14.544;2023-03-20T04:53:03;98384.41;;;7.03;100.00
56182;BME280;51963;46.052;14.544;2023-03-20T04:55:31;98389.00;;;6.93;100.00
56182;BME280;51963;46.052;14.544;2023-03-20T04:57:58;98398.69;;;7.00;100.00
56182;BME280;51963;46.052;14.544;2023-03-20T05:00:25;98370.28;;;6.96;100.00
56182;BME280;51963;46.052;14.544;2023-03-20T05:02:51;98385.22;;;6.95;100.00
56182;BME280;51963;46.052;14.544;2023-03-20T05:05:16;98395.25;;;6.75;100.00
56182;BME280;51963;46.052;14.544;2023-03-20T05:07:42;98400.13;;;6.62;100.00
56182;BME280;51963;46.052;14.544;2023-03-20T05:10:13;98398.81;;;6.57;100.00
56182;BME280;51963;46.052;14.544;2023-03-20T05:12:49;98401.56;;;6.39;100.00
56182;BME280;51963;46.052;14.544;2023-03-20T05:15:28;98407.81;;;6.46;100.00
56182;BME280;51963;46.052;14.544;2023-03-20T05:18:12;98400.91;;;6.45;100.00
56182;BME280;51963;46.052;14.544;2023-03-20T05:20:57;98413.91;;;6.47;100.00
56182;BME280;51963;46.052;14.544;2023-03-20T05:23:29;98377.06;;;6.22;100.00
56182;BME280;51963;46.052;14.544;2023-03-20T05:26:15;98409.41;;;6.31;100.00
56182;BME280;51963;46.052;14.544;2023-03-20T05:29:07;98404.66;;;6.35;100.00
56182;BME280;51963;46.052;14.544;2023-03-20T05:32:05;98401.56;;;6.39;100.00
56182;BME280;51963;46.052;14.544;2023-03-20T05:34:59;98408.44;;;6.40;100.00
56182;BME280;51963;46.052;14.544;2023-03-20T05:37:41;98410.59;;;6.45;100.00
56182;BME280;51963;46.052;14.544;2023-03-20T05:40:21;98417.19;;;6.49;100.00
56182;BME280;51963;46.052;14.544;2023-03-20T05:43:08;98409.66;;;6.54;100.00
56182;BME280;51963;46.052;14.544;2023-03-20T05:45:52;98407.69;;;6.56;100.00
56182;BME280;51963;46.052;14.544;2023-03-20T05:48:26;98373.50;;;6.40;100.00
56182;BME280;51963;46.052;14.544;2023-03-20T05:51:28;98410.50;;;6.71;100.00
56182;BME280;51963;46.052;14.544;2023-03-20T05:54:00;98411.00;;;6.75;100.00
56182;BME280;51963;46.052;14.544;2023-03-20T05:56:38;98408.38;;;6.83;100.00
56182;BME280;51963;46.052;14.544;2023-03-20T05:59:30;98409.50;;;6.72;100.00
56182;BME280;51963;46.052;14.544;2023-03-20T06:02:22;98418.41;;;6.88;100.00
56182;BME280;51963;46.052;14.544;2023-03-20T06:04:57;98414.78;;;6.97;100.00
56182;BME280;51963;46.052;14.544;2023-03-20T06:07:27;98420.22;;;7.04;100.00
56182;BME280;51963;46.052;14.544;2023-03-20T06:10:00;98426.28;;;7.13;100.00
56182;BME280;51963;46.052;14.544;2023-03-20T06:12:27;98418.41;;;7.29;100.00
56182;BME280;51963;46.052;14.544;2023-03-20T06:14:54;98419.22;;;7.46;100.00
56182;BME280;51963;46.052;14.544;2023-03-20T06:17:20;98403.28;;;7.40;100.00
56182;BME280;51963;46.052;14.544;2023-03-20T06:19:51;98423.28;;;7.66;100.00
56182;BME280;51963;46.052;14.544;2023-03-20T06:22:17;98422.81;;;7.70;100.00
56182;BME280;51963;46.052;14.544;2023-03-20T06:24:42;98421.66;;;7.64;100.00
56182;BME280;51963;46.052;14.544;2023-03-20T06:27:11;98420.47;;;7.84;100.00
56182;BME280;51963;46.052;14.544;2023-03-20T06:29:37;98426.38;;;7.94;100.00
56182;BME280;51963;46.052;14.544;2023-03-20T06:32:11;98422.34;;;8.15;100.00
56182;BME280;51963;46.052;14.544;2023-03-20T06:34:41;98422.94;;;8.33;100.00
56182;BME280;51963;46.052;14.544;2023-03-20T06:37:07;98428.56;;;8.22;99.01
56182;BME280;51963;46.052;14.544;2023-03-20T06:39:33;98433.38;;;8.18;98.13
56182;BME280;51963;46.052;14.544;2023-03-20T06:41:59;98432.34;;;8.28;98.52
56182;BME280;51963;46.052;14.544;2023-03-20T06:44:25;98436.38;;;8.47;97.65
56182;BME280;51963;46.052;14.544;2023-03-20T06:47:13;98447.53;;;8.57;95.64
56182;BME280;51963;46.052;14.544;2023-03-20T06:49:41;98438.94;;;8.63;96.51
56182;BME280;51963;46.052;14.544;2023-03-20T06:52:14;98440.03;;;8.77;96.13
56182;BME280;51963;46.052;14.544;2023-03-20T06:54:42;98421.94;;;8.74;95.98
56182;BME280;51963;46.052;14.544;2023-03-20T06:57:11;98423.22;;;8.78;96.42
56182;BME280;51963;46.052;14.544;2023-03-20T06:59:36;98444.13;;;8.80;97.06
56182;BME280;51963;46.052;14.544;2023-03-20T07:02:03;98427.75;;;8.61;96.50
56182;BME280;51963;46.052;14.544;2023-03-20T07:04:30;98445.38;;;8.92;96.73
56182;BME280;51963;46.052;14.544;2023-03-20T07:06:59;98424.63;;;8.89;95.07
56182;BME280;51963;46.052;14.544;2023-03-20T07:09:25;98438.81;;;9.12;92.72
56182;BME280;51963;46.052;14.544;2023-03-20T07:11:51;98437.84;;;9.28;92.84
56182;BME280;51963;46.052;14.544;2023-03-20T07:14:18;98445.09;;;9.49;92.69
56182;BME280;51963;46.052;14.544;2023-03-20T07:16:55;98440.34;;;9.44;92.50
56182;BME280;51963;46.052;14.544;2023-03-20T07:19:21;98434.94;;;9.76;91.23
56182;BME280;51963;46.052;14.544;2023-03-20T07:21:54;98445.41;;;9.99;87.41
56182;BME280;51963;46.052;14.544;2023-03-20T07:24:23;98442.50;;;10.24;88.10
56182;BME280;51963;46.052;14.544;2023-03-20T07:26:48;98414.94;;;9.96;88.54
56182;BME280;51963;46.052;14.544;2023-03-20T07:29:14;98447.53;;;10.04;89.05
56182;BME280;51963;46.052;14.544;2023-03-20T07:31:41;98450.34;;;10.02;89.21
56182;BME280;51963;46.052;14.544;2023-03-20T07:34:12;98444.41;;;10.00;88.83
56182;BME280;51963;46.052;14.544;2023-03-20T07:36:39;98458.47;;;10.31;86.90
56182;BME280;51963;46.052;14.544;2023-03-20T07:39:07;98452.38;;;10.15;86.45
56182;BME280;51963;46.052;14.544;2023-03-20T07:41:35;98435.69;;;10.15;86.62
56182;BME280;51963;46.052;14.544;2023-03-20T07:44:04;98460.34;;;10.52;85.92
56182;BME280;51963;46.052;14.544;2023-03-20T07:46:54;98464.09;;;10.42;84.90
56182;BME280;51963;46.052;14.544;2023-03-20T07:49:21;98473.66;;;10.13;86.94
56182;BME280;51963;46.052;14.544;2023-03-20T07:51:48;98469.28;;;10.51;84.46
56182;BME280;51963;46.052;14.544;2023-03-20T07:54:14;98456.91;;;10.66;83.45
56182;BME280;51963;46.052;14.544;2023-03-20T07:56:40;98450.41;;;10.69;82.66
56182;BME280;51963;46.052;14.544;2023-03-20T07:59:07;98460.59;;;10.72;83.38
56182;BME280;51963;46.052;14.544;2023-03-20T08:01:33;98471.22;;;11.15;81.90
56182;BME280;51963;46.052;14.544;2023-03-20T08:03:59;98456.06;;;11.03;80.76
56182;BME280;51963;46.052;14.544;2023-03-20T08:06:25;98474.25;;;11.34;80.15
56182;BME280;51963;46.052;14.544;2023-03-20T08:08:50;98476.88;;;11.56;78.99
56182;BME280;51963;46.052;14.544;2023-03-20T08:11:17;98482.81;;;11.86;76.67
56182;BME280;51963;46.052;14.544;2023-03-20T08:13:46;98485.22;;;12.10;76.56
56182;BME280;51963;46.052;14.544;2023-03-20T08:16:11;98482.41;;;12.53;74.74
56182;BME280;51963;46.052;14.544;2023-03-20T08:18:37;98464.34;;;12.84;71.14
56182;BME280;51963;46.052;14.544;2023-03-20T08:21:03;98480.84;;;12.24;74.57
56182;BME280;51963;46.052;14.544;2023-03-20T08:23:29;98478.50;;;12.49;74.14
56182;BME280;51963;46.052;14.544;2023-03-20T08:25:55;98457.53;;;13.43;70.77
56182;BME280;51963;46.052;14.544;2023-03-20T08:28:24;98467.28;;;13.23;70.58
56182;BME280;51963;46.052;14.544;2023-03-20T08:30:50;98487.28;;;13.12;70.76
56182;BME280;51963;46.052;14.544;2023-03-20T08:33:17;98482.16;;;13.03;73.17
56182;BME280;51963;46.052;14.544;2023-03-20T08:35:43;98492.91;;;12.82;74.68
56182;BME280;51963;46.052;14.544;2023-03-20T08:38:12;98491.13;;;13.02;73.23
56182;BME280;51963;46.052;14.544;2023-03-20T08:40:41;98489.63;;;13.62;70.55
56182;BME280;51963;46.052;14.544;2023-03-20T08:43:08;98489.81;;;13.47;71.00
56182;BME280;51963;46.052;14.544;2023-03-20T08:45:36;98488.09;;;13.19;73.76
56182;BME280;51963;46.052;14.544;2023-03-20T08:48:03;98495.66;;;13.22;72.16
56182;BME280;51963;46.052;14.544;2023-03-20T08:50:29;98457.44;;;13.03;71.09
56182;BME280;51963;46.052;14.544;2023-03-20T08:52:55;98490.72;;;12.99;72.51
56182;BME280;51963;46.052;14.544;2023-03-20T08:55:20;98488.94;;;13.26;73.94
56182;BME280;51963;46.052;14.544;2023-03-20T08:57:46;98445.44;;;13.27;70.99
56182;BME280;51963;46.052;14.544;2023-03-20T09:00:14;98469.38;;;13.68;71.17
56182;BME280;51963;46.052;14.544;2023-03-20T09:02:40;98484.28;;;13.42;72.53
56182;BME280;51963;46.052;14.544;2023-03-20T09:05:07;98488.72;;;14.15;68.37
56182;BME280;51963;46.052;14.544;2023-03-20T09:07:33;98469.47;;;14.27;70.53
56182;BME280;51963;46.052;14.544;2023-03-20T09:09:59;98476.94;;;13.44;70.30
56182;BME280;51963;46.052;14.544;2023-03-20T09:12:25;98470.41;;;13.67;70.57
56182;BME280;51963;46.052;14.544;2023-03-20T09:14:51;98479.38;;;13.99;70.92
56182;BME280;51963;46.052;14.544;2023-03-20T09:17:17;98474.69;;;13.81;71.82
56182;BME280;51963;46.052;14.544;2023-03-20T09:19:42;98504.28;;;14.18;67.67
56182;BME280;51963;46.052;14.544;2023-03-20T09:22:13;98478.94;;;14.09;69.34
56182;BME280;51963;46.052;14.544;2023-03-20T09:24:39;98495.72;;;13.89;70.90
56182;BME280;51963;46.052;14.544;2023-03-20T09:27:05;98494.66;;;14.24;68.98
56182;BME280;51963;46.052;14.544;2023-03-20T09:29:31;98484.16;;;14.43;68.25
56182;BME280;51963;46.052;14.544;2023-03-20T09:31:57;98474.56;;;14.35;69.48
56182;BME280;51963;46.052;14.544;2023-03-20T09:34:22;98500.16;;;14.22;70.02
56182;BME280;51963;46.052;14.544;2023-03-20T09:36:49;98480.59;;;13.43;73.19
56182;BME280;51963;46.052;14.544;2023-03-20T09:39:16;98464.25;;;13.39;74.99
56182;BME280;51963;46.052;14.544;2023-03-20T09:41:50;98471.19;;;13.87;73.91
56182;BME280;51963;46.052;14.544;2023-03-20T09:46:46;98481.31;;;14.31;70.63
56182;BME280;51963;46.052;14.544;2023-03-20T09:54:50;98476.66;;;14.78;67.92
56182;BME280;51963;46.052;14.544;2023-03-20T09:57:22;98476.16;;;14.56;66.37
56182;BME280;51963;46.052;14.544;2023-03-20T10:00:02;98473.44;;;13.97;68.68
56182;BME280;51963;46.052;14.544;2023-03-20T10:02:49;98478.06;;;15.20;65.68
56182;BME280;51963;46.052;14.544;2023-03-20T10:08:15;98464.06;;;15.31;62.90
56182;BME280;51963;46.052;14.544;2023-03-20T10:10:51;98455.47;;;15.80;60.89
56182;BME280;51963;46.052;14.544;2023-03-20T10:18:28;98480.59;;;16.53;60.13
56182;BME280;51963;46.052;14.544;2023-03-20T10:23:34;98480.03;;;16.33;58.74
56182;BME280;51963;46.052;14.544;2023-03-20T10:26:09;98444.53;;;15.12;61.38
56182;BME280;51963;46.052;14.544;2023-03-20T10:28:57;98469.50;;;16.38;58.67
56182;BME280;51963;46.052;14.544;2023-03-20T10:31:43;98469.31;;;16.70;55.63
56182;BME280;51963;46.052;14.544;2023-03-20T10:34:53;98456.66;;;16.96;54.38
56182;BME280;51963;46.052;14.544;2023-03-20T10:37:36;98459.88;;;17.17;55.01
56182;BME280;51963;46.052;14.544;2023-03-20T10:42:40;98447.06;;;18.09;52.66
56182;BME280;51963;46.052;14.544;2023-03-20T10:47:46;98453.78;;;18.11;52.11
56182;BME280;51963;46.052;14.544;2023-03-20T10:50:16;98458.31;;;17.09;54.22
56182;BME280;51963;46.052;14.544;2023-03-20T10:52:46;98448.69;;;18.10;50.77
56182;BME280;51963;46.052;14.544;2023-03-20T10:55:20;98449.63;;;18.03;52.01
56182;BME280;51963;46.052;14.544;2023-03-20T10:57:51;98434.81;;;18.66;50.67
56182;BME280;51963;46.052;14.544;2023-03-20T11:00:23;98440.63;;;18.62;49.20
56182;BME280;51963;46.052;14.544;2023-03-20T11:02:51;98447.78;;;19.32;49.59
56182;BME280;51963;46.052;14.544;2023-03-20T11:05:31;98437.56;;;18.42;49.08
56182;BME280;51963;46.052;14.544;2023-03-20T11:08:06;98431.16;;;18.43;50.26
56182;BME280;51963;46.052;14.544;2023-03-20T11:10:35;98432.66;;;18.80;49.01
56182;BME280;51963;46.052;14.544;2023-03-20T11:15:46;98425.59;;;19.02;49.06
56182;BME280;51963;46.052;14.544;2023-03-20T11:18:14;98427.28;;;18.51;49.36
56182;BME280;51963;46.052;14.544;2023-03-20T11:20:45;98417.94;;;18.65;51.52
56182;BME280;51963;46.052;14.544;2023-03-20T11:23:35;98425.63;;;18.61;49.75
56182;BME280;51963;46.052;14.544;2023-03-20T11:26:05;98417.19;;;19.67;49.00
56182;BME280;51963;46.052;14.544;2023-03-20T11:28:45;98387.47;;;19.52;47.53
56182;BME280;51963;46.052;14.544;2023-03-20T11:33:50;98404.78;;;20.45;45.10
56182;BME280;51963;46.052;14.544;2023-03-20T11:38:49;98387.63;;;20.46;44.83
56182;BME280;51963;46.052;14.544;2023-03-20T11:41:27;98414.81;;;20.27;45.45
56182;BME280;51963;46.052;14.544;2023-03-20T11:43:53;98393.75;;;20.19;46.98
56182;BME280;51963;46.052;14.544;2023-03-20T11:46:20;98382.03;;;20.25;45.20
56182;BME280;51963;46.052;14.544;2023-03-20T11:49:04;98392.00;;;20.07;45.21
56182;BME280;51963;46.052;14.544;2023-03-20T11:51:31;98387.94;;;20.27;45.90
56182;BME280;51963;46.052;14.544;2023-03-20T11:54:22;98390.16;;;20.08;44.96
56182;BME280;51963;46.052;14.544;2023-03-20T11:56:55;98389.19;;;19.58;47.71
56182;BME280;51963;46.052;14.544;2023-03-20T11:59:25;98367.56;;;19.64;46.28
56182;BME280;51963;46.052;14.544;2023-03-20T12:01:57;98383.84;;;19.24;49.63
56182;BME280;51963;46.052;14.544;2023-03-20T12:04:36;98362.81;;;19.15;49.48
56182;BME280;51963;46.052;14.544;2023-03-20T12:07:22;98366.72;;;18.32;49.51
56182;BME280;51963;46.052;14.544;2023-03-20T12:12:49;98357.41;;;17.11;53.02
56182;BME280;51963;46.052;14.544;2023-03-20T12:15:32;98358.47;;;17.45;53.11
56182;BME280;51963;46.052;14.544;2023-03-20T12:18:02;98368.13;;;17.23;53.24
56182;BME280;51963;46.052;14.544;2023-03-20T12:20:33;98366.47;;;16.98;54.85
56182;BME280;51963;46.052;14.544;2023-03-20T12:25:56;98360.50;;;16.53;55.84
56182;BME280;51963;46.052;14.544;2023-03-20T12:34:37;98365.06;;;15.78;59.18
56182;BME280;51963;46.052;14.544;2023-03-20T12:37:08;98363.59;;;15.64;59.06
56182;BME280;51963;46.052;14.544;2023-03-20T12:39:47;98362.06;;;15.31;60.81
56182;BME280;51963;46.052;14.544;2023-03-20T12:45:29;98364.38;;;14.95;63.17
56182;BME280;51963;46.052;14.544;2023-03-20T13:01:09;98362.63;;;14.43;65.91
56182;BME280;51963;46.052;14.544;2023-03-20T13:16:50;98345.19;;;14.54;65.71
56182;BME280;51963;46.052;14.544;2023-03-20T13:19:33;98351.47;;;14.60;66.20
56182;BME280;51963;46.052;14.544;2023-03-20T13:22:07;98341.34;;;14.43;66.24
56182;BME280;51963;46.052;14.544;2023-03-20T13:24:54;98350.41;;;14.35;68.18
56182;BME280;51963;46.052;14.544;2023-03-20T13:30:23;98341.66;;;14.60;65.69
56182;BME280;51963;46.052;14.544;2023-03-20T13:38:09;98340.72;;;14.48;66.31
56182;BME280;51963;46.052;14.544;2023-03-20T13:40:40;98348.69;;;14.48;66.85
56182;BME280;51963;46.052;14.544;2023-03-20T13:43:33;98348.28;;;14.44;66.44
56182;BME280;51963;46.052;14.544;2023-03-20T13:46:08;98330.78;;;14.30;66.53
56182;BME280;51963;46.052;14.544;2023-03-20T13:48:38;98342.19;;;14.37;66.87
56182;BME280;51963;46.052;14.544;2023-03-20T13:52:11;98342.88;;;14.26;68.00
56182;BME280;51963;46.052;14.544;2023-03-20T13:54:22;98333.31;;;14.11;69.00
56182;BME280;51963;46.052;14.544;2023-03-20T13:57:12;98325.94;;;14.13;67.87
56182;BME280;51963;46.052;14.544;2023-03-20T14:03:03;98346.00;;;14.09;68.21
56182;BME280;51963;46.052;14.544;2023-03-20T14:05:36;98330.94;;;13.96;68.58
56182;BME280;51963;46.052;14.544;2023-03-20T14:10:45;98331.72;;;14.03;69.73
56182;BME280;51963;46.052;14.544;2023-03-20T14:13:14;98332.47;;;14.17;69.46
56182;BME280;51963;46.052;14.544;2023-03-20T14:15:52;98326.25;;;14.37;67.95
56182;BME280;51963;46.052;14.544;2023-03-20T14:18:24;98302.97;;;14.32;67.20
56182;BME280;51963;46.052;14.544;2023-03-20T14:20:54;98315.16;;;14.40;66.52
56182;BME280;51963;46.052;14.544;2023-03-20T14:23:33;98323.75;;;14.42;67.51
56182;BME280;51963;46.052;14.544;2023-03-20T14:25:59;98324.78;;;14.41;67.93
56182;BME280;51963;46.052;14.544;2023-03-20T14:28:29;98316.75;;;14.09;68.93
56182;BME280;51963;46.052;14.544;2023-03-20T14:31:22;98325.28;;;14.25;69.49
56182;BME280;51963;46.052;14.544;2023-03-20T14:34:01;98322.25;;;14.14;70.39
56182;BME280;51963;46.052;14.544;2023-03-20T14:36:51;98317.53;;;14.23;71.70
56182;BME280;51963;46.052;14.544;2023-03-20T14:50:17;98319.00;;;14.12;68.95
56182;BME280;51963;46.052;14.544;2023-03-20T14:52:54;98314.47;;;14.19;69.31
56182;BME280;51963;46.052;14.544;2023-03-20T14:57:56;98324.31;;;14.12;70.03
56182;BME280;51963;46.052;14.544;2023-03-20T15:00:28;98323.03;;;14.21;70.14
56182;BME280;51963;46.052;14.544;2023-03-20T15:03:03;98316.03;;;14.34;70.36
56182;BME280;51963;46.052;14.544;2023-03-20T15:05:35;98322.91;;;14.48;68.73
56182;BME280;51963;46.052;14.544;2023-03-20T15:08:10;98320.13;;;14.30;69.53
56182;BME280;51963;46.052;14.544;2023-03-20T15:10:49;98316.53;;;14.17;68.60
56182;BME280;51963;46.052;14.544;2023-03-20T15:13:16;98325.56;;;14.10;69.70
56182;BME280;51963;46.052;14.544;2023-03-20T15:16:02;98330.91;;;14.03;71.63
56182;BME280;51963;46.052;14.544;2023-03-20T15:18:29;98323.63;;;13.85;70.31
56182;BME280;51963;46.052;14.544;2023-03-20T15:20:56;98331.78;;;13.83;70.72
56182;BME280;51963;46.052;14.544;2023-03-20T15:23:23;98315.25;;;13.81;72.51
56182;BME280;51963;46.052;14.544;2023-03-20T15:25:50;98306.47;;;13.74;72.37
56182;BME280;51963;46.052;14.544;2023-03-20T15:28:25;98306.28;;;13.69;72.26
56182;BME280;51963;46.052;14.544;2023-03-20T15:30:55;98304.28;;;13.64;72.04
56182;BME280;51963;46.052;14.544;2023-03-20T15:33:28;98305.31;;;13.56;72.35
56182;BME280;51963;46.052;14.544;2023-03-20T15:35:55;98335.31;;;13.70;72.69
56182;BME280;51963;46.052;14.544;2023-03-20T15:38:27;98329.59;;;13.67;72.61